createdAt,value
2019-01-21T00:00:02.782Z,1.00
2019-01-21T00:02:33.553Z,1.00
2019-01-21T00:05:04.099Z,1.00
2019-01-21T00:07:34.538Z,1.00
2019-01-21T00:10:05.622Z,1.00
2019-01-21T00:12:36.009Z,1.00
2019-01-21T00:15:07.035Z,1.00
2019-01-21T00:17:37.414Z,1.00
2019-01-21T00:20:08.311Z,1.00
2019-01-21T00:22:38.710Z,1.00
2019-01-21T00:25:09.067Z,1.00
2019-01-21T00:27:39.431Z,1.00
2019-01-21T00:30:09.914Z,1.00
2019-01-21T00:32:40.402Z,1.00
2019-01-21T00:35:11.017Z,1.00
2019-01-21T00:37:41.426Z,1.00
2019-01-21T00:40:12.306Z,1.00
2019-01-21T00:42:42.697Z,1.00
2019-01-21T00:45:13.290Z,1.00
2019-01-21T00:47:43.665Z,1.00
2019-01-21T00:50:14.275Z,1.00
2019-01-21T00:52:44.680Z,1.00
2019-01-21T00:55:15.300Z,1.00
2019-01-21T00:57:45.646Z,1.00
2019-01-21T01:00:19.425Z,1.00
2019-01-21T01:02:50.057Z,1.00
2019-01-21T01:05:21.356Z,1.00
2019-01-21T01:07:51.721Z,1.00
2019-01-21T01:10:22.114Z,1.00
2019-01-21T01:12:52.486Z,1.00
2019-01-21T01:15:22.846Z,1.00
2019-01-21T01:17:53.209Z,1.00
2019-01-21T01:20:23.635Z,1.00
2019-01-21T01:22:53.989Z,1.00
2019-01-21T01:25:24.365Z,1.00
2019-01-21T01:27:54.934Z,1.00
2019-01-21T01:30:25.414Z,1.00
2019-01-21T01:32:55.764Z,1.00
2019-01-21T01:35:26.146Z,1.00
2019-01-21T01:37:56.644Z,1.00
2019-01-21T01:40:26.998Z,1.00
2019-01-21T01:42:57.372Z,1.00
2019-01-21T01:45:29.025Z,1.00
2019-01-21T01:48:01.886Z,1.00
2019-01-21T01:50:32.656Z,1.00
2019-01-21T01:53:03.107Z,1.00
2019-01-21T01:55:34.227Z,1.00
2019-01-21T01:58:06.397Z,1.00
2019-01-21T02:00:37.302Z,1.00
2019-01-21T02:03:07.865Z,1.00
2019-01-21T02:05:38.234Z,1.00
2019-01-21T02:08:08.596Z,1.00
2019-01-21T02:10:38.958Z,1.00
2019-01-21T02:13:09.337Z,1.00
2019-01-21T02:15:39.713Z,1.00
2019-01-21T02:18:10.109Z,1.00
2019-01-21T02:20:40.482Z,1.00
2019-01-21T02:23:15.422Z,1.00
2019-01-21T02:25:58.938Z,1.00
2019-01-21T02:28:48.371Z,1.00
2019-01-21T02:32:01.833Z,1.00
2019-01-21T02:35:12.951Z,1.00
2019-01-21T02:38:23.714Z,1.00
2019-01-21T02:41:03.619Z,1.00
2019-01-21T02:43:53.720Z,1.00
2019-01-21T02:46:42.550Z,1.00
2019-01-21T02:49:52.842Z,1.00
2019-01-21T02:53:09.324Z,1.00
2019-01-21T02:56:05.688Z,1.00
2019-01-21T02:59:26.039Z,1.00
2019-01-21T03:02:32.144Z,1.00
2019-01-21T03:05:41.385Z,1.00
2019-01-21T03:08:47.489Z,1.00
2019-01-21T03:11:56.993Z,1.00
2019-01-21T03:14:57.485Z,1.00
2019-01-21T03:18:08.101Z,1.00
2019-01-21T03:21:18.522Z,1.00
2019-01-21T03:24:41.076Z,1.00
2019-01-21T03:28:16.972Z,1.00
2019-01-21T03:31:24.222Z,1.00
2019-01-21T03:34:43.003Z,1.00
2019-01-21T03:37:47.778Z,1.00
2019-01-21T03:40:58.022Z,1.00
2019-01-21T03:44:15.300Z,1.00
2019-01-21T03:47:08.298Z,1.00
2019-01-21T03:50:00.443Z,1.00
2019-01-21T03:52:39.852Z,1.00
2019-01-21T03:55:13.519Z,1.00
2019-01-21T03:58:37.577Z,1.00
2019-01-21T04:01:33.376Z,1.00
2019-01-21T04:04:46.762Z,1.00
2019-01-21T04:07:30.895Z,1.00
2019-01-21T04:10:43.943Z,1.00
2019-01-21T04:13:51.120Z,1.00
2019-01-21T04:17:17.626Z,1.00
2019-01-21T04:20:18.395Z,1.00
2019-01-21T04:23:26.950Z,1.00
2019-01-21T04:26:26.626Z,1.00
2019-01-21T04:29:27.743Z,1.00
2019-01-21T04:32:21.288Z,1.00
2019-01-21T04:35:42.183Z,1.00
2019-01-21T04:39:14.257Z,1.00
2019-01-21T04:42:34.535Z,1.00
2019-01-21T04:45:29.689Z,1.00
2019-01-21T04:48:33.186Z,1.00
2019-01-21T04:51:47.770Z,1.00
2019-01-21T04:54:45.418Z,1.00
2019-01-21T04:57:40.782Z,1.00
2019-01-21T05:00:34.669Z,1.00
2019-01-21T05:03:44.435Z,1.00
2019-01-21T05:07:01.241Z,1.00
2019-01-21T05:10:15.166Z,1.00
2019-01-21T05:13:31.301Z,1.00
2019-01-21T05:16:41.847Z,1.00
2019-01-21T05:19:55.304Z,1.00
2019-01-21T05:22:50.307Z,1.00
2019-01-21T05:25:36.742Z,1.00
2019-01-21T05:28:32.439Z,1.00
2019-01-21T05:31:45.550Z,1.00
2019-01-21T05:34:56.802Z,1.00
2019-01-21T05:38:01.710Z,1.00
2019-01-21T05:41:04.343Z,1.00
2019-01-21T05:44:07.438Z,1.00
2019-01-21T05:47:21.261Z,1.00
2019-01-21T05:50:29.436Z,1.00
2019-01-21T05:53:45.298Z,1.00
2019-01-21T05:56:40.697Z,1.00
2019-01-21T05:59:40.690Z,1.00
2019-01-21T06:02:51.953Z,1.00
2019-01-21T06:05:57.896Z,1.00
2019-01-21T06:08:59.962Z,1.00
2019-01-21T06:11:49.936Z,1.00
2019-01-21T06:15:16.685Z,1.00
2019-01-21T06:18:34.187Z,1.00
2019-01-21T06:21:43.934Z,1.00
2019-01-21T06:24:58.254Z,1.00
2019-01-21T06:27:54.545Z,1.00
2019-01-21T06:31:06.893Z,1.00
2019-01-21T06:34:11.879Z,1.00
2019-01-21T06:36:53.198Z,1.00
2019-01-21T06:39:52.562Z,1.00
2019-01-21T06:42:33.681Z,1.00
2019-01-21T06:45:55.665Z,1.00
2019-01-21T06:49:14.637Z,1.00
2019-01-21T06:52:14.474Z,1.00
2019-01-21T06:55:29.110Z,1.00
2019-01-21T06:58:27.994Z,1.00
2019-01-21T07:01:45.296Z,1.00
2019-01-21T07:04:58.505Z,1.00
2019-01-21T07:08:21.849Z,1.00
2019-01-21T07:11:08.135Z,1.00
2019-01-21T07:14:25.572Z,1.00
2019-01-21T07:17:46.426Z,1.00
2019-01-21T07:21:09.676Z,1.00
2019-01-21T07:24:07.482Z,1.00
2019-01-21T07:27:09.452Z,1.00
2019-01-21T07:30:15.273Z,1.00
2019-01-21T07:33:31.436Z,1.00
2019-01-21T07:36:42.605Z,1.00
2019-01-21T07:39:43.545Z,1.00
2019-01-21T07:43:00.395Z,1.00
2019-01-21T07:46:17.742Z,1.00
2019-01-21T07:49:31.152Z,1.00
2019-01-21T07:52:37.389Z,99.90
2019-01-21T07:55:37.215Z,99.90
2019-01-21T07:58:50.669Z,1.00
2019-01-21T08:01:53.029Z,1.00
2019-01-21T08:04:43.166Z,1.00
2019-01-21T08:07:28.199Z,99.90
2019-01-21T08:10:33.848Z,99.90
2019-01-21T08:13:32.541Z,99.90
2019-01-21T08:16:24.252Z,99.90
2019-01-21T08:19:51.023Z,99.90
2019-01-21T08:23:24.006Z,8.10
2019-01-21T08:26:22.167Z,1.00
2019-01-21T08:29:35.451Z,1.00
2019-01-21T08:32:45.274Z,1.00
2019-01-21T08:35:48.605Z,40.60
2019-01-21T08:38:54.957Z,1.00
2019-01-21T08:42:02.212Z,99.90
2019-01-21T08:45:28.192Z,99.90
2019-01-21T08:48:32.021Z,99.90
2019-01-21T08:51:45.423Z,1.00
2019-01-21T08:55:08.913Z,1.00
2019-01-21T08:58:05.569Z,99.90
2019-01-21T09:01:35.623Z,1.00
2019-01-21T09:04:42.650Z,1.00
2019-01-21T09:08:03.355Z,99.90
2019-01-21T09:11:13.297Z,99.90
2019-01-21T09:13:54.813Z,1.00
2019-01-21T09:17:01.070Z,1.00
2019-01-21T09:20:12.631Z,99.10
2019-01-21T09:23:32.917Z,79.40
2019-01-21T09:26:16.682Z,1.00
2019-01-21T09:29:12.454Z,1.00
2019-01-21T09:32:35.325Z,1.00
2019-01-21T09:35:58.589Z,99.90
2019-01-21T09:39:10.155Z,19.40
2019-01-21T09:42:15.978Z,1.00
2019-01-21T09:45:19.222Z,99.90
2019-01-21T09:47:47.937Z,1.00
2019-01-21T09:50:19.334Z,1.00
2019-01-21T09:52:49.710Z,99.90
2019-01-21T09:55:22.023Z,99.90
2019-01-21T09:58:04.288Z,1.00
2019-01-21T10:00:34.790Z,73.80
2019-01-21T10:03:05.759Z,94.90
2019-01-21T10:05:37.901Z,1.00
2019-01-21T10:08:21.873Z,99.90
2019-01-21T10:11:33.442Z,99.90
2019-01-21T10:14:55.613Z,99.90
2019-01-21T10:18:22.248Z,42.00
2019-01-21T10:21:43.302Z,1.00
2019-01-21T10:24:47.522Z,99.90
2019-01-21T10:27:54.415Z,99.90
2019-01-21T10:31:06.238Z,99.90
2019-01-21T10:34:02.844Z,48.80
2019-01-21T10:37:22.381Z,7.40
2019-01-21T10:40:25.671Z,1.00
2019-01-21T10:43:55.452Z,1.00
2019-01-21T10:46:55.134Z,1.00
2019-01-21T10:49:45.765Z,1.00
2019-01-21T10:52:37.710Z,1.00
2019-01-21T10:55:51.974Z,1.00
2019-01-21T10:58:32.854Z,1.00
2019-01-21T11:01:47.453Z,1.00
2019-01-21T11:04:30.926Z,1.00
2019-01-21T11:07:34.455Z,1.00
2019-01-21T11:10:41.780Z,99.90
2019-01-21T11:13:52.071Z,99.90
2019-01-21T11:16:36.168Z,99.90
2019-01-21T11:19:50.224Z,99.90
2019-01-21T11:22:27.588Z,99.90
2019-01-21T11:25:47.781Z,99.90
2019-01-21T11:28:47.338Z,99.90
2019-01-21T11:31:26.849Z,99.90
2019-01-21T11:34:28.509Z,99.90
2019-01-21T11:37:57.862Z,99.90
2019-01-21T11:41:09.502Z,99.90
2019-01-21T11:44:25.938Z,99.90
2019-01-21T11:47:26.251Z,99.90
2019-01-21T11:50:36.614Z,99.90
2019-01-21T11:53:50.464Z,99.90
2019-01-21T11:56:50.065Z,99.90
2019-01-21T12:00:17.242Z,99.90
2019-01-21T12:03:08.862Z,99.90
2019-01-21T12:05:44.618Z,99.90
2019-01-21T12:08:50.173Z,99.90
2019-01-21T12:12:01.536Z,99.90
2019-01-21T12:15:01.674Z,99.90
2019-01-21T12:18:18.221Z,99.90
2019-01-21T12:21:30.193Z,99.90
2019-01-21T12:24:23.543Z,99.90
2019-01-21T12:27:35.783Z,99.90
2019-01-21T12:31:14.542Z,99.90
2019-01-21T12:34:32.316Z,99.90
2019-01-21T12:37:38.428Z,99.90
2019-01-21T12:40:54.474Z,99.90
2019-01-21T12:43:55.255Z,99.90
2019-01-21T12:47:13.528Z,99.90
2019-01-21T12:50:31.028Z,99.90
2019-01-21T12:53:25.182Z,99.90
2019-01-21T12:56:42.546Z,99.90
2019-01-21T12:59:28.897Z,99.90
2019-01-21T13:02:20.967Z,99.90
2019-01-21T13:05:13.216Z,99.90
2019-01-21T13:08:25.696Z,99.90
2019-01-21T13:11:33.031Z,99.90
2019-01-21T13:14:59.439Z,99.90
2019-01-21T13:17:57.041Z,99.90
2019-01-21T13:20:58.008Z,99.90
2019-01-21T13:24:01.500Z,99.90
2019-01-21T13:26:57.145Z,99.90
2019-01-21T13:29:54.056Z,99.90
2019-01-21T13:32:53.237Z,99.90
2019-01-21T13:35:49.911Z,99.90
2019-01-21T13:38:51.437Z,99.90
2019-01-21T13:41:34.481Z,99.90
2019-01-21T13:44:41.230Z,99.90
2019-01-21T13:48:01.814Z,99.90
2019-01-21T13:50:48.884Z,99.90
2019-01-21T13:53:58.500Z,99.90
2019-01-21T13:57:10.826Z,99.90
2019-01-21T14:00:09.840Z,99.90
2019-01-21T14:03:26.626Z,99.90
2019-01-21T14:06:39.900Z,99.90
2019-01-21T14:10:05.786Z,99.90
2019-01-21T14:12:58.669Z,99.90
2019-01-21T14:15:58.786Z,99.90
2019-01-21T14:18:51.652Z,99.90
2019-01-21T14:22:24.471Z,99.90
2019-01-21T14:25:42.018Z,99.90
2019-01-21T14:28:48.085Z,99.90
2019-01-21T14:31:59.517Z,99.90
2019-01-21T14:35:00.579Z,99.90
2019-01-21T14:38:23.933Z,99.90
2019-01-21T14:41:24.345Z,99.90
2019-01-21T14:44:38.402Z,99.90
2019-01-21T14:47:59.114Z,99.90
2019-01-21T14:51:05.170Z,99.90
2019-01-21T14:54:22.046Z,99.90
2019-01-21T14:57:15.693Z,99.90
2019-01-21T15:00:12.031Z,99.90
2019-01-21T15:03:05.556Z,99.90
2019-01-21T15:06:24.779Z,99.90
2019-01-21T15:09:08.174Z,99.90
2019-01-21T15:11:58.920Z,99.90
2019-01-21T15:15:12.148Z,99.90
2019-01-21T15:18:11.115Z,99.90
2019-01-21T15:20:57.763Z,99.90
2019-01-21T15:24:06.711Z,99.90
2019-01-21T15:26:50.098Z,99.90
2019-01-21T15:30:16.251Z,99.90
2019-01-21T15:33:23.586Z,99.90
2019-01-21T15:36:34.176Z,1.00
2019-01-21T15:39:28.021Z,1.00
2019-01-21T15:42:26.293Z,99.90
2019-01-21T15:45:19.717Z,72.40
2019-01-21T15:48:11.364Z,99.90
2019-01-21T15:51:05.084Z,99.90
2019-01-21T15:53:45.319Z,99.90
2019-01-21T15:56:53.693Z,99.90
2019-01-21T16:00:00.652Z,99.90
2019-01-21T16:03:10.350Z,99.90
2019-01-21T16:06:34.433Z,99.90
2019-01-21T16:09:33.078Z,1.00
2019-01-21T16:12:16.534Z,1.00
2019-01-21T16:15:02.318Z,99.90
2019-01-21T16:17:43.641Z,1.00
2019-01-21T16:20:37.729Z,99.90
2019-01-21T16:23:50.770Z,23.60
2019-01-21T16:26:37.605Z,39.80
2019-01-21T16:29:37.689Z,99.90
2019-01-21T16:32:18.970Z,99.90
2019-01-21T16:35:27.116Z,99.90
2019-01-21T16:38:32.629Z,1.00
2019-01-21T16:41:31.729Z,99.90
2019-01-21T16:44:02.144Z,99.90
2019-01-21T16:46:32.575Z,99.90
2019-01-21T16:49:02.990Z,99.90
2019-01-21T16:51:33.377Z,1.00
2019-01-21T16:54:03.805Z,1.00
2019-01-21T16:56:34.260Z,1.00
2019-01-21T16:59:04.899Z,1.00
2019-01-21T17:01:35.310Z,1.00
2019-01-21T17:04:05.823Z,32.50
2019-01-21T17:06:36.265Z,64.50
2019-01-21T17:09:10.535Z,14.60
2019-01-21T17:11:40.935Z,1.00
2019-01-21T17:14:12.588Z,1.00
2019-01-21T17:16:42.985Z,99.90
2019-01-21T17:19:13.368Z,1.00
2019-01-21T17:21:43.758Z,2.00
2019-01-21T17:24:14.142Z,99.90
2019-01-21T17:26:44.534Z,1.00
2019-01-21T17:29:14.889Z,1.00
2019-01-21T17:31:45.301Z,99.90
2019-01-21T17:34:15.708Z,99.90
2019-01-21T17:36:46.103Z,1.00
2019-01-21T17:39:16.619Z,1.00
2019-01-21T17:41:47.096Z,1.00
2019-01-21T17:44:17.522Z,1.00
2019-01-21T17:46:47.954Z,1.00
2019-01-21T17:49:18.353Z,1.00
2019-01-21T17:51:48.805Z,99.90
2019-01-21T17:54:19.219Z,1.00
2019-01-21T17:56:49.618Z,48.80
2019-01-21T17:59:19.998Z,1.00
2019-01-21T18:01:50.449Z,99.90
2019-01-21T18:04:20.863Z,1.00
2019-01-21T18:06:51.253Z,59.00
2019-01-21T18:09:21.651Z,27.30
2019-01-21T18:11:52.045Z,99.90
2019-01-21T18:14:22.424Z,1.00
2019-01-21T18:16:52.797Z,1.00
2019-01-21T18:19:23.195Z,99.90
2019-01-21T18:21:53.629Z,99.90
2019-01-21T18:24:24.061Z,25.20
2019-01-21T18:26:54.456Z,1.00
2019-01-21T18:29:24.861Z,99.90
2019-01-21T18:31:55.233Z,25.20
2019-01-21T18:34:25.627Z,99.90
2019-01-21T18:36:56.039Z,1.00
2019-01-21T18:39:26.443Z,1.00
2019-01-21T18:41:56.883Z,1.00
2019-01-21T18:44:27.276Z,1.00
2019-01-21T18:46:57.666Z,1.00
2019-01-21T18:49:28.018Z,1.00
2019-01-21T18:51:58.398Z,1.00
2019-01-21T18:54:28.847Z,99.90
2019-01-21T18:56:59.204Z,99.90
2019-01-21T18:59:29.669Z,99.90
2019-01-21T19:02:00.098Z,99.90
2019-01-21T19:04:30.952Z,1.00
2019-01-21T19:07:01.409Z,1.00
2019-01-21T19:09:31.857Z,99.90
2019-01-21T19:12:02.277Z,99.90
2019-01-21T19:14:32.755Z,99.90
2019-01-21T19:17:03.138Z,99.90
2019-01-21T19:19:33.597Z,99.90
2019-01-21T19:22:04.129Z,99.90
2019-01-21T19:24:34.687Z,1.00
2019-01-21T19:27:05.162Z,1.00
2019-01-21T19:29:35.579Z,99.90
2019-01-21T19:32:06.098Z,99.90
2019-01-21T19:34:36.524Z,99.90
2019-01-21T19:37:06.961Z,60.00
2019-01-21T19:39:37.441Z,36.40
2019-01-21T19:42:07.890Z,1.00
2019-01-21T19:44:38.259Z,1.00
2019-01-21T19:47:08.769Z,1.00
2019-01-21T19:49:39.227Z,16.50
2019-01-21T19:52:09.725Z,99.90
2019-01-21T19:54:40.177Z,99.90
2019-01-21T19:57:10.617Z,8.40
2019-01-21T19:59:40.994Z,1.00
2019-01-21T20:02:11.439Z,1.00
2019-01-21T20:04:41.910Z,12.90
2019-01-21T20:07:15.508Z,1.00
2019-01-21T20:09:45.910Z,99.90
2019-01-21T20:12:16.488Z,1.00
2019-01-21T20:14:46.991Z,1.00
2019-01-21T20:17:17.440Z,99.90
2019-01-21T20:19:47.862Z,1.00
2019-01-21T20:22:18.292Z,1.40
2019-01-21T20:24:48.755Z,99.90
2019-01-21T20:27:19.185Z,99.90
2019-01-21T20:29:51.651Z,36.90
2019-01-21T20:32:22.089Z,1.00
2019-01-21T20:34:52.520Z,99.90
2019-01-21T20:37:23.035Z,99.90
2019-01-21T20:39:53.497Z,99.90
2019-01-21T20:42:23.943Z,1.00
2019-01-21T20:44:54.363Z,1.00
2019-01-21T20:47:24.761Z,1.00
2019-01-21T20:49:55.169Z,99.90
2019-01-21T20:52:25.562Z,90.50
2019-01-21T20:54:57.659Z,99.90
2019-01-21T20:57:29.838Z,99.90
2019-01-21T21:00:00.332Z,99.90
2019-01-21T21:02:30.861Z,67.80
2019-01-21T21:05:01.231Z,60.00
2019-01-21T21:07:31.474Z,99.90
2019-01-21T21:10:01.898Z,99.90
2019-01-21T21:12:32.308Z,99.90
2019-01-21T21:15:02.680Z,99.90
2019-01-21T21:17:32.929Z,99.90
2019-01-21T21:20:03.306Z,99.90
2019-01-21T21:22:33.736Z,99.90
2019-01-21T21:25:04.618Z,99.90
2019-01-21T21:27:34.885Z,99.90
2019-01-21T21:30:07.914Z,99.00
2019-01-21T21:32:38.215Z,99.90
2019-01-21T21:35:09.021Z,99.90
2019-01-21T21:37:39.646Z,99.90
2019-01-21T21:40:12.669Z,99.90
2019-01-21T21:42:42.908Z,99.90
2019-01-21T21:45:14.102Z,99.90
2019-01-21T21:47:44.494Z,99.90
2019-01-21T21:50:17.719Z,99.90
2019-01-21T21:52:48.109Z,99.90
2019-01-21T21:55:18.801Z,99.90
2019-01-21T21:57:49.124Z,99.90
2019-01-21T22:00:21.479Z,99.90
2019-01-21T22:02:51.857Z,99.90
2019-01-21T22:05:26.757Z,99.90
2019-01-21T22:07:57.169Z,99.90
2019-01-21T22:10:29.229Z,99.90
2019-01-21T22:12:59.573Z,1.00
2019-01-21T22:15:30.013Z,99.90
2019-01-21T22:18:00.394Z,99.90
2019-01-21T22:20:30.946Z,99.90
2019-01-21T22:23:01.607Z,99.90
2019-01-21T22:25:31.934Z,99.90
2019-01-21T22:28:02.330Z,99.90
2019-01-21T22:30:32.710Z,99.90
2019-01-21T22:33:04.883Z,99.90
2019-01-21T22:35:35.544Z,99.90
2019-01-21T22:38:06.139Z,99.90
2019-01-21T22:40:36.531Z,99.90
2019-01-21T22:43:07.001Z,99.90
2019-01-21T22:45:37.447Z,99.90
2019-01-21T22:48:07.839Z,99.90
2019-01-21T22:50:38.250Z,99.90
2019-01-21T22:53:08.701Z,99.90
2019-01-21T22:55:39.137Z,99.90
2019-01-21T22:58:09.941Z,1.00
2019-01-21T23:00:50.276Z,1.00
2019-01-21T23:03:20.825Z,1.00
2019-01-21T23:05:51.237Z,1.00
2019-01-21T23:08:22.108Z,1.00
2019-01-21T23:10:52.490Z,1.00
2019-01-21T23:13:22.949Z,1.00
2019-01-21T23:15:53.397Z,1.00
2019-01-21T23:18:23.808Z,1.00
2019-01-21T23:20:54.554Z,1.00
2019-01-21T23:23:25.051Z,1.00
2019-01-21T23:25:55.496Z,1.00
2019-01-21T23:28:25.960Z,1.00
2019-01-21T23:30:56.354Z,1.00
2019-01-21T23:33:26.741Z,1.00
2019-01-21T23:35:57.182Z,99.90
2019-01-21T23:38:27.570Z,99.90
2019-01-21T23:40:58.114Z,1.00
2019-01-21T23:43:28.491Z,1.00
2019-01-21T23:45:58.987Z,1.00
2019-01-21T23:48:29.458Z,1.00
2019-01-21T23:51:00.034Z,1.00
2019-01-21T23:53:30.465Z,1.00
2019-01-21T23:56:00.948Z,1.00
2019-01-21T23:58:31.460Z,1.00
